DLH3TN EKCH-EDDM
Flight info
| Callsign | DLH3TN |
|---|---|
| Flight time | 1h 24m |
| Altitude | 33000 |
| Route | SALLO M44 KOGIM DCT MAREM DCT VESUB T106 TUSTO T108 LANDU LANDU2A |
| Aircraft | A321/M-SDE2E3FGIJ1LORWXYZ/HB1 |
Departure
| Time | 2026-05-01 11:12 |
|---|---|
| Airport | Copenhagen Kastrup Airport (EKCH) |
Arrival
| Time | 2026-05-01 12:36 |
|---|---|
| Airport | Munich Airport (EDDM) |
| Time | Latitude | Longitude | Altitude | Speed | Heading |
|---|---|---|---|---|---|
| 2026-05-01 10:40 | 55.62742 | 12.64036 | 28 ft | 0 kts | 33° |
| 2026-05-01 11:00 | 55.62730 | 12.64022 | 25 ft | 4 kts | 33° |
| 2026-05-01 11:00 | 55.62710 | 12.63999 | 25 ft | 4 kts | 35° |
| 2026-05-01 11:01 | 55.62695 | 12.63969 | 25 ft | 4 kts | 90° |
| 2026-05-01 11:01 | 55.62703 | 12.63928 | 25 ft | 3 kts | 123° |
| 2026-05-01 11:01 | 55.62706 | 12.63918 | 26 ft | 0 kts | 123° |
| 2026-05-01 11:03 | 55.62706 | 12.63919 | 26 ft | 1 kts | 123° |
| 2026-05-01 11:03 | 55.62701 | 12.63934 | 26 ft | 0 kts | 121° |
| 2026-05-01 11:03 | 55.62696 | 12.63947 | 25 ft | 2 kts | 123° |
| 2026-05-01 11:04 | 55.62681 | 12.63987 | 24 ft | 6 kts | 123° |
| 2026-05-01 11:04 | 55.62651 | 12.64068 | 24 ft | 10 kts | 123° |
| 2026-05-01 11:04 | 55.62609 | 12.64177 | 24 ft | 12 kts | 127° |
| 2026-05-01 11:04 | 55.62539 | 12.64198 | 24 ft | 11 kts | 171° |
| 2026-05-01 11:05 | 55.62487 | 12.64301 | 24 ft | 12 kts | 127° |
| 2026-05-01 11:05 | 55.62429 | 12.64430 | 24 ft | 14 kts | 130° |
| 2026-05-01 11:05 | 55.62374 | 12.64580 | 24 ft | 15 kts | 117° |
| 2026-05-01 11:05 | 55.62312 | 12.64748 | 24 ft | 17 kts | 124° |
| 2026-05-01 11:06 | 55.62245 | 12.64925 | 24 ft | 18 kts | 123° |
| 2026-05-01 11:06 | 55.62178 | 12.65099 | 24 ft | 12 kts | 131° |
| 2026-05-01 11:06 | 55.62111 | 12.65066 | 24 ft | 12 kts | 213° |
| 2026-05-01 11:07 | 55.61953 | 12.64884 | 23 ft | 16 kts | 213° |
| 2026-05-01 11:07 | 55.61857 | 12.64773 | 24 ft | 17 kts | 213° |
| 2026-05-01 11:07 | 55.61752 | 12.64652 | 26 ft | 19 kts | 213° |
| 2026-05-01 11:07 | 55.61638 | 12.64521 | 26 ft | 20 kts | 213° |
| 2026-05-01 11:08 | 55.61515 | 12.64381 | 24 ft | 22 kts | 213° |
| 2026-05-01 11:08 | 55.61385 | 12.64232 | 25 ft | 23 kts | 212° |
| 2026-05-01 11:08 | 55.61103 | 12.63904 | 24 ft | 25 kts | 212° |
| 2026-05-01 11:09 | 55.60958 | 12.63744 | 26 ft | 21 kts | 211° |
| 2026-05-01 11:09 | 55.60851 | 12.63620 | 24 ft | 13 kts | 213° |
| 2026-05-01 11:09 | 55.60802 | 12.63574 | 24 ft | 5 kts | 175° |
| 2026-05-01 11:10 | 55.60744 | 12.63690 | 24 ft | 7 kts | 130° |
| 2026-05-01 11:10 | 55.60742 | 12.63695 | 24 ft | 0 kts | 131° |
| 2026-05-01 11:11 | 55.60740 | 12.63698 | 24 ft | 2 kts | 131° |
| 2026-05-01 11:11 | 55.60701 | 12.63779 | 24 ft | 15 kts | 127° |
| 2026-05-01 11:11 | 55.60732 | 12.63950 | 27 ft | 19 kts | 43° |
| 2026-05-01 11:12 | 55.61011 | 12.64389 | 23 ft | 94 kts | 41° |
| 2026-05-01 11:12 | 55.61679 | 12.65421 | 28 ft | 157 kts | 42° |
| 2026-05-01 11:12 | 55.62524 | 12.66692 | 708 ft | 158 kts | 40° |
| 2026-05-01 11:12 | 55.63329 | 12.68088 | 1458 ft | 170 kts | 52° |
| 2026-05-01 11:13 | 55.63618 | 12.70114 | 2204 ft | 177 kts | 98° |
| 2026-05-01 11:13 | 55.62999 | 12.71974 | 2941 ft | 182 kts | 140° |
| 2026-05-01 11:13 | 55.61877 | 12.73019 | 3634 ft | 185 kts | 167° |
| 2026-05-01 11:13 | 55.60589 | 12.73496 | 4330 ft | 193 kts | 173° |
| 2026-05-01 11:14 | 55.59261 | 12.73883 | 5131 ft | 194 kts | 173° |
| 2026-05-01 11:14 | 55.57933 | 12.74260 | 5847 ft | 196 kts | 173° |
| 2026-05-01 11:14 | 55.56512 | 12.74654 | 6114 ft | 217 kts | 173° |
| 2026-05-01 11:14 | 55.54944 | 12.75119 | 6297 ft | 241 kts | 167° |
| 2026-05-01 11:15 | 55.53248 | 12.76025 | 6581 ft | 265 kts | 163° |
| 2026-05-01 11:15 | 55.51466 | 12.77026 | 7252 ft | 271 kts | 168° |
| 2026-05-01 11:15 | 55.49597 | 12.77563 | 8016 ft | 274 kts | 173° |
| 2026-05-01 11:15 | 55.47695 | 12.78009 | 8757 ft | 278 kts | 173° |
| 2026-05-01 11:16 | 55.45763 | 12.78442 | 9528 ft | 282 kts | 173° |
| 2026-05-01 11:16 | 55.43810 | 12.78867 | 10311 ft | 284 kts | 173° |
| 2026-05-01 11:16 | 55.41808 | 12.79294 | 10729 ft | 300 kts | 174° |
| 2026-05-01 11:16 | 55.39658 | 12.79748 | 10916 ft | 322 kts | 174° |
| 2026-05-01 11:17 | 55.37386 | 12.80228 | 11309 ft | 334 kts | 173° |
| 2026-05-01 11:17 | 55.35068 | 12.80841 | 11899 ft | 340 kts | 167° |
| 2026-05-01 11:17 | 55.32828 | 12.82226 | 12503 ft | 346 kts | 154° |
| 2026-05-01 11:17 | 55.30777 | 12.84479 | 13126 ft | 351 kts | 142° |
| 2026-05-01 11:18 | 55.28870 | 12.87182 | 13771 ft | 354 kts | 141° |
| 2026-05-01 11:18 | 55.26938 | 12.89904 | 14395 ft | 358 kts | 142° |
| 2026-05-01 11:18 | 55.24977 | 12.92641 | 14968 ft | 362 kts | 142° |
| 2026-05-01 11:18 | 55.22996 | 12.95396 | 15560 ft | 365 kts | 142° |
| 2026-05-01 11:19 | 55.21000 | 12.98168 | 16166 ft | 368 kts | 142° |
| 2026-05-01 11:19 | 55.18981 | 13.00975 | 16731 ft | 372 kts | 141° |
| 2026-05-01 11:19 | 55.16944 | 13.03801 | 17312 ft | 375 kts | 141° |
| 2026-05-01 11:19 | 55.14888 | 13.06646 | 17898 ft | 378 kts | 141° |
| 2026-05-01 11:20 | 55.12814 | 13.09514 | 18475 ft | 381 kts | 141° |
| 2026-05-01 11:20 | 55.10729 | 13.12398 | 19003 ft | 384 kts | 141° |
| 2026-05-01 11:20 | 55.08621 | 13.15316 | 19475 ft | 388 kts | 141° |
| 2026-05-01 11:20 | 55.06505 | 13.18246 | 20014 ft | 389 kts | 141° |
| 2026-05-01 11:21 | 55.04378 | 13.21183 | 20555 ft | 391 kts | 141° |
| 2026-05-01 11:21 | 55.02241 | 13.24127 | 21052 ft | 393 kts | 141° |
| 2026-05-01 11:21 | 55.00084 | 13.27091 | 21501 ft | 397 kts | 140° |
| 2026-05-01 11:21 | 54.97905 | 13.30075 | 21956 ft | 400 kts | 141° |
| 2026-05-01 11:22 | 54.95714 | 13.33071 | 22435 ft | 402 kts | 140° |
| 2026-05-01 11:22 | 54.93444 | 13.35945 | 22894 ft | 406 kts | 147° |
| 2026-05-01 11:22 | 54.90917 | 13.38155 | 23343 ft | 409 kts | 158° |
| 2026-05-01 11:22 | 54.88175 | 13.39556 | 23791 ft | 413 kts | 168° |
| 2026-05-01 11:23 | 54.85325 | 13.40328 | 24193 ft | 416 kts | 171° |
| 2026-05-01 11:23 | 54.82455 | 13.41087 | 24574 ft | 418 kts | 170° |
| 2026-05-01 11:23 | 54.79609 | 13.41852 | 24961 ft | 421 kts | 170° |
| 2026-05-01 11:23 | 54.76712 | 13.42637 | 25356 ft | 422 kts | 170° |
| 2026-05-01 11:24 | 54.73802 | 13.43424 | 25762 ft | 424 kts | 170° |
| 2026-05-01 11:24 | 54.70880 | 13.44213 | 26151 ft | 426 kts | 170° |
| 2026-05-01 11:24 | 54.64945 | 13.45805 | 26899 ft | 431 kts | 170° |
| 2026-05-01 11:25 | 54.61972 | 13.46597 | 27258 ft | 434 kts | 170° |
| 2026-05-01 11:25 | 54.55973 | 13.48178 | 27975 ft | 439 kts | 171° |
| 2026-05-01 11:25 | 54.52948 | 13.48981 | 28333 ft | 441 kts | 170° |
| 2026-05-01 11:26 | 54.49910 | 13.49790 | 28686 ft | 443 kts | 170° |
| 2026-05-01 11:26 | 54.43777 | 13.51382 | 29361 ft | 449 kts | 171° |
| 2026-05-01 11:26 | 54.40676 | 13.52160 | 29683 ft | 452 kts | 171° |
| 2026-05-01 11:27 | 54.37555 | 13.52931 | 30020 ft | 454 kts | 171° |
| 2026-05-01 11:27 | 54.34419 | 13.53707 | 30357 ft | 457 kts | 171° |
| 2026-05-01 11:27 | 54.31255 | 13.54371 | 30640 ft | 460 kts | 176° |
| 2026-05-01 11:27 | 54.28052 | 13.54503 | 30905 ft | 462 kts | 178° |
| 2026-05-01 11:28 | 54.24834 | 13.54579 | 31176 ft | 463 kts | 178° |
| 2026-05-01 11:28 | 54.21607 | 13.54649 | 31439 ft | 464 kts | 178° |
| 2026-05-01 11:28 | 54.18371 | 13.54720 | 31683 ft | 466 kts | 178° |
| 2026-05-01 11:29 | 54.11899 | 13.54887 | 32363 ft | 464 kts | 178° |
| 2026-05-01 11:29 | 54.08717 | 13.54976 | 32704 ft | 463 kts | 178° |
| 2026-05-01 11:29 | 54.02284 | 13.55141 | 33346 ft | 462 kts | 178° |
| 2026-05-01 11:30 | 53.99089 | 13.55217 | 33414 ft | 453 kts | 178° |
| 2026-05-01 11:30 | 53.92868 | 13.55368 | 33414 ft | 444 kts | 178° |
| 2026-05-01 11:31 | 53.86704 | 13.55520 | 33416 ft | 442 kts | 178° |
| 2026-05-01 11:31 | 53.81547 | 13.55655 | 33415 ft | 442 kts | 178° |
| 2026-05-01 11:32 | 53.75397 | 13.55818 | 33415 ft | 442 kts | 178° |
| 2026-05-01 11:32 | 53.69248 | 13.55974 | 33419 ft | 442 kts | 178° |
| 2026-05-01 11:33 | 53.63097 | 13.56118 | 33423 ft | 442 kts | 178° |
| 2026-05-01 11:33 | 53.56952 | 13.56267 | 33420 ft | 442 kts | 178° |
| 2026-05-01 11:34 | 53.50802 | 13.56422 | 33433 ft | 442 kts | 178° |
| 2026-05-01 11:34 | 53.44640 | 13.56568 | 33416 ft | 443 kts | 178° |
| 2026-05-01 11:35 | 53.38472 | 13.56732 | 33418 ft | 444 kts | 178° |
| 2026-05-01 11:35 | 53.32296 | 13.56887 | 33422 ft | 444 kts | 178° |
| 2026-05-01 11:36 | 53.26111 | 13.57037 | 33424 ft | 444 kts | 178° |
| 2026-05-01 11:36 | 53.19932 | 13.57179 | 33426 ft | 444 kts | 178° |
| 2026-05-01 11:37 | 53.13756 | 13.57323 | 33429 ft | 443 kts | 178° |
| 2026-05-01 11:37 | 53.07591 | 13.57472 | 33427 ft | 443 kts | 178° |
| 2026-05-01 11:38 | 53.01473 | 13.57618 | 33422 ft | 443 kts | 178° |
| 2026-05-01 11:38 | 52.95272 | 13.57771 | 33421 ft | 443 kts | 178° |
| 2026-05-01 11:39 | 52.89153 | 13.57930 | 33426 ft | 443 kts | 178° |
| 2026-05-01 11:39 | 52.82988 | 13.58075 | 33428 ft | 443 kts | 178° |
| 2026-05-01 11:40 | 52.76776 | 13.58213 | 33427 ft | 443 kts | 178° |
| 2026-05-01 11:40 | 52.70648 | 13.58357 | 33427 ft | 443 kts | 178° |
| 2026-05-01 11:41 | 52.64437 | 13.58510 | 33425 ft | 443 kts | 178° |
| 2026-05-01 11:41 | 52.58316 | 13.58662 | 33426 ft | 443 kts | 178° |
| 2026-05-01 11:42 | 52.52111 | 13.58811 | 33434 ft | 443 kts | 178° |
| 2026-05-01 11:42 | 52.45939 | 13.58951 | 33417 ft | 444 kts | 178° |
| 2026-05-01 11:43 | 52.39755 | 13.59084 | 33409 ft | 445 kts | 178° |
| 2026-05-01 11:43 | 52.33606 | 13.59230 | 33409 ft | 445 kts | 178° |
| 2026-05-01 11:44 | 52.24267 | 13.59455 | 33412 ft | 446 kts | 178° |
| 2026-05-01 11:44 | 52.18066 | 13.59595 | 33418 ft | 446 kts | 178° |
| 2026-05-01 11:45 | 52.11867 | 13.59740 | 33419 ft | 446 kts | 178° |
| 2026-05-01 11:45 | 52.05666 | 13.59892 | 33422 ft | 446 kts | 178° |
| 2026-05-01 11:46 | 51.99466 | 13.60028 | 33423 ft | 445 kts | 178° |
| 2026-05-01 11:46 | 51.93267 | 13.60162 | 33422 ft | 446 kts | 178° |
| 2026-05-01 11:47 | 51.87064 | 13.60309 | 33422 ft | 446 kts | 178° |
| 2026-05-01 11:47 | 51.80863 | 13.60456 | 33421 ft | 446 kts | 178° |
| 2026-05-01 11:48 | 51.74661 | 13.60595 | 33420 ft | 446 kts | 178° |
| 2026-05-01 11:48 | 51.68460 | 13.60737 | 33418 ft | 446 kts | 178° |
| 2026-05-01 11:49 | 51.62251 | 13.60879 | 33419 ft | 446 kts | 178° |
| 2026-05-01 11:49 | 51.56083 | 13.61018 | 33437 ft | 446 kts | 177° |
| 2026-05-01 11:50 | 51.49865 | 13.61163 | 33415 ft | 447 kts | 177° |
| 2026-05-01 11:50 | 51.43598 | 13.61300 | 33409 ft | 448 kts | 177° |
| 2026-05-01 11:51 | 51.37407 | 13.61431 | 33405 ft | 448 kts | 177° |
| 2026-05-01 11:51 | 51.31151 | 13.61570 | 33430 ft | 455 kts | 177° |
| 2026-05-01 11:52 | 51.24706 | 13.61716 | 33433 ft | 471 kts | 177° |
| 2026-05-01 11:52 | 51.18132 | 13.61860 | 33431 ft | 473 kts | 178° |
| 2026-05-01 11:53 | 51.11554 | 13.62006 | 33436 ft | 473 kts | 178° |
| 2026-05-01 11:53 | 51.04976 | 13.62157 | 33440 ft | 473 kts | 177° |
| 2026-05-01 11:54 | 50.98398 | 13.62304 | 33441 ft | 473 kts | 177° |
| 2026-05-01 11:54 | 50.91812 | 13.62444 | 33422 ft | 473 kts | 177° |
| 2026-05-01 11:55 | 50.85224 | 13.62591 | 33433 ft | 473 kts | 177° |
| 2026-05-01 11:55 | 50.78635 | 13.62743 | 33415 ft | 473 kts | 177° |
| 2026-05-01 11:56 | 50.72044 | 13.62526 | 33406 ft | 476 kts | 186° |
| 2026-05-01 11:56 | 50.65628 | 13.59926 | 33408 ft | 478 kts | 197° |
| 2026-05-01 11:57 | 50.59294 | 13.56748 | 33407 ft | 478 kts | 197° |
| 2026-05-01 11:57 | 50.52953 | 13.53602 | 33410 ft | 478 kts | 196° |
| 2026-05-01 11:58 | 50.46609 | 13.50465 | 33408 ft | 478 kts | 196° |
| 2026-05-01 11:59 | 50.37093 | 13.45759 | 33413 ft | 478 kts | 197° |
| 2026-05-01 11:59 | 50.30748 | 13.42629 | 33411 ft | 478 kts | 196° |
| 2026-05-01 12:00 | 50.21225 | 13.37956 | 33412 ft | 478 kts | 196° |
| 2026-05-01 12:01 | 50.11699 | 13.33293 | 33418 ft | 478 kts | 196° |
| 2026-05-01 12:01 | 50.05348 | 13.30185 | 33415 ft | 479 kts | 196° |
| 2026-05-01 12:02 | 49.98989 | 13.27095 | 33415 ft | 479 kts | 196° |
| 2026-05-01 12:02 | 49.92623 | 13.24017 | 33420 ft | 479 kts | 196° |
| 2026-05-01 12:03 | 49.86255 | 13.20946 | 33427 ft | 480 kts | 196° |
| 2026-05-01 12:03 | 49.79879 | 13.17869 | 33427 ft | 480 kts | 196° |
| 2026-05-01 12:04 | 49.73495 | 13.14792 | 33429 ft | 481 kts | 196° |
| 2026-05-01 12:04 | 49.67108 | 13.11722 | 33415 ft | 481 kts | 196° |
| 2026-05-01 12:05 | 49.60714 | 13.08670 | 33418 ft | 481 kts | 196° |
| 2026-05-01 12:05 | 49.51115 | 13.04117 | 33419 ft | 481 kts | 196° |
| 2026-05-01 12:06 | 49.44717 | 13.01076 | 33420 ft | 481 kts | 196° |
| 2026-05-01 12:06 | 49.38502 | 12.97247 | 33411 ft | 483 kts | 205° |
| 2026-05-01 12:07 | 49.32438 | 12.92810 | 33409 ft | 483 kts | 205° |
| 2026-05-01 12:07 | 49.29394 | 12.90599 | 33257 ft | 484 kts | 205° |
| 2026-05-01 12:07 | 49.26397 | 12.88425 | 32997 ft | 483 kts | 205° |
| 2026-05-01 12:08 | 49.23317 | 12.86194 | 32538 ft | 484 kts | 205° |
| 2026-05-01 12:08 | 49.20298 | 12.84006 | 31533 ft | 488 kts | 205° |
| 2026-05-01 12:08 | 49.17231 | 12.81781 | 30575 ft | 490 kts | 205° |
| 2026-05-01 12:08 | 49.14100 | 12.79515 | 29447 ft | 492 kts | 205° |
| 2026-05-01 12:09 | 49.11050 | 12.77313 | 28454 ft | 491 kts | 204° |
| 2026-05-01 12:09 | 49.07917 | 12.75054 | 27277 ft | 493 kts | 204° |
| 2026-05-01 12:09 | 49.04845 | 12.72843 | 26081 ft | 496 kts | 204° |
| 2026-05-01 12:09 | 49.01715 | 12.70594 | 24930 ft | 498 kts | 204° |
| 2026-05-01 12:10 | 48.98577 | 12.68337 | 23786 ft | 499 kts | 204° |
| 2026-05-01 12:10 | 48.92386 | 12.63883 | 21983 ft | 485 kts | 204° |
| 2026-05-01 12:10 | 48.89350 | 12.61705 | 21103 ft | 479 kts | 203° |
| 2026-05-01 12:11 | 48.83381 | 12.57462 | 19390 ft | 468 kts | 203° |
| 2026-05-01 12:11 | 48.80443 | 12.55387 | 18520 ft | 463 kts | 203° |
| 2026-05-01 12:11 | 48.77543 | 12.53339 | 17635 ft | 456 kts | 202° |
| 2026-05-01 12:12 | 48.74626 | 12.51583 | 16797 ft | 447 kts | 197° |
| 2026-05-01 12:12 | 48.71713 | 12.50014 | 15936 ft | 442 kts | 197° |
| 2026-05-01 12:12 | 48.68832 | 12.48466 | 15109 ft | 437 kts | 197° |
| 2026-05-01 12:12 | 48.66054 | 12.46681 | 14317 ft | 434 kts | 208° |
| 2026-05-01 12:13 | 48.63684 | 12.43973 | 13986 ft | 419 kts | 224° |
| 2026-05-01 12:13 | 48.61881 | 12.40674 | 13850 ft | 397 kts | 237° |
| 2026-05-01 12:13 | 48.60673 | 12.37047 | 13718 ft | 377 kts | 251° |
| 2026-05-01 12:13 | 48.60050 | 12.33299 | 13415 ft | 362 kts | 264° |
| 2026-05-01 12:14 | 48.59870 | 12.30768 | 13194 ft | 356 kts | 266° |
| 2026-05-01 12:14 | 48.59618 | 12.27050 | 12935 ft | 355 kts | 266° |
| 2026-05-01 12:14 | 48.59422 | 12.23347 | 12678 ft | 353 kts | 268° |
| 2026-05-01 12:14 | 48.59284 | 12.19653 | 12407 ft | 351 kts | 269° |
| 2026-05-01 12:15 | 48.59171 | 12.15969 | 12155 ft | 351 kts | 269° |
| 2026-05-01 12:15 | 48.59060 | 12.12290 | 11904 ft | 350 kts | 269° |
| 2026-05-01 12:15 | 48.58941 | 12.08629 | 11653 ft | 349 kts | 268° |
| 2026-05-01 12:15 | 48.58817 | 12.05034 | 11410 ft | 347 kts | 268° |
| 2026-05-01 12:16 | 48.58683 | 12.01406 | 11156 ft | 346 kts | 268° |
| 2026-05-01 12:16 | 48.58543 | 11.97737 | 10908 ft | 345 kts | 267° |
| 2026-05-01 12:16 | 48.58405 | 11.94170 | 10662 ft | 344 kts | 268° |
| 2026-05-01 12:16 | 48.58268 | 11.90629 | 10429 ft | 333 kts | 268° |
| 2026-05-01 12:17 | 48.58134 | 11.87205 | 10251 ft | 320 kts | 267° |
| 2026-05-01 12:17 | 48.58000 | 11.83874 | 10118 ft | 307 kts | 267° |
| 2026-05-01 12:17 | 48.57873 | 11.80710 | 9980 ft | 306 kts | 267° |
| 2026-05-01 12:17 | 48.57746 | 11.77503 | 9857 ft | 304 kts | 266° |
| 2026-05-01 12:18 | 48.57618 | 11.74306 | 9694 ft | 307 kts | 266° |
| 2026-05-01 12:18 | 48.57485 | 11.71070 | 9487 ft | 305 kts | 266° |
| 2026-05-01 12:18 | 48.57356 | 11.67882 | 9235 ft | 302 kts | 266° |
| 2026-05-01 12:18 | 48.57230 | 11.64769 | 9018 ft | 300 kts | 266° |
| 2026-05-01 12:19 | 48.57011 | 11.61648 | 8787 ft | 297 kts | 257° |
| 2026-05-01 12:19 | 48.56329 | 11.58727 | 8557 ft | 296 kts | 240° |
| 2026-05-01 12:19 | 48.55200 | 11.56123 | 8136 ft | 297 kts | 229° |
| 2026-05-01 12:19 | 48.53932 | 11.53663 | 7733 ft | 295 kts | 230° |
| 2026-05-01 12:20 | 48.52688 | 11.51234 | 7493 ft | 290 kts | 229° |
| 2026-05-01 12:20 | 48.51460 | 11.48831 | 7259 ft | 288 kts | 230° |
| 2026-05-01 12:20 | 48.50224 | 11.46481 | 7031 ft | 285 kts | 227° |
| 2026-05-01 12:20 | 48.48917 | 11.44217 | 6801 ft | 287 kts | 226° |
| 2026-05-01 12:21 | 48.47585 | 11.42003 | 6520 ft | 284 kts | 224° |
| 2026-05-01 12:21 | 48.46236 | 11.39841 | 6269 ft | 282 kts | 223° |
| 2026-05-01 12:21 | 48.44906 | 11.37721 | 6097 ft | 276 kts | 222° |
| 2026-05-01 12:21 | 48.43602 | 11.35624 | 5926 ft | 272 kts | 224° |
| 2026-05-01 12:22 | 48.42120 | 11.33995 | 5712 ft | 261 kts | 193° |
| 2026-05-01 12:22 | 48.40392 | 11.33970 | 5617 ft | 245 kts | 156° |
| 2026-05-01 12:22 | 48.39099 | 11.35473 | 5523 ft | 235 kts | 120° |
| 2026-05-01 12:22 | 48.38319 | 11.37629 | 5409 ft | 235 kts | 117° |
| 2026-05-01 12:23 | 48.37566 | 11.39797 | 5323 ft | 231 kts | 117° |
| 2026-05-01 12:23 | 48.36845 | 11.41914 | 5207 ft | 224 kts | 117° |
| 2026-05-01 12:23 | 48.36147 | 11.43944 | 5099 ft | 213 kts | 117° |
| 2026-05-01 12:23 | 48.35467 | 11.45875 | 4981 ft | 205 kts | 116° |
| 2026-05-01 12:24 | 48.34837 | 11.47697 | 4931 ft | 188 kts | 117° |
| 2026-05-01 12:24 | 48.34332 | 11.49423 | 4896 ft | 177 kts | 103° |
| 2026-05-01 12:24 | 48.34266 | 11.51212 | 4843 ft | 170 kts | 87° |
| 2026-05-01 12:24 | 48.34407 | 11.52973 | 4566 ft | 169 kts | 84° |
| 2026-05-01 12:25 | 48.34554 | 11.54727 | 4397 ft | 169 kts | 84° |
| 2026-05-01 12:25 | 48.34823 | 11.58207 | 3893 ft | 166 kts | 85° |
| 2026-05-01 12:25 | 48.34955 | 11.59920 | 3730 ft | 164 kts | 84° |
| 2026-05-01 12:26 | 48.35091 | 11.61631 | 3482 ft | 167 kts | 84° |
| 2026-05-01 12:26 | 48.35352 | 11.64978 | 3043 ft | 148 kts | 83° |
| 2026-05-01 12:26 | 48.35475 | 11.66437 | 2894 ft | 135 kts | 82° |
| 2026-05-01 12:27 | 48.35581 | 11.67804 | 2698 ft | 129 kts | 83° |
| 2026-05-01 12:27 | 48.35793 | 11.70539 | 2348 ft | 130 kts | 84° |
| 2026-05-01 12:28 | 48.36011 | 11.73294 | 1950 ft | 135 kts | 83° |
| 2026-05-01 12:28 | 48.36116 | 11.74680 | 1782 ft | 134 kts | 84° |
| 2026-05-01 12:28 | 48.36330 | 11.77418 | 1492 ft | 124 kts | 85° |
| 2026-05-01 12:29 | 48.36418 | 11.78599 | 1469 ft | 117 kts | 86° |
| 2026-05-01 12:29 | 48.36539 | 11.80056 | 1934 ft | 153 kts | 82° |
| 2026-05-01 12:29 | 48.36924 | 11.83159 | 3691 ft | 159 kts | 63° |
| 2026-05-01 12:30 | 48.39333 | 11.83707 | 4351 ft | 229 kts | 329° |
| 2026-05-01 12:30 | 48.40562 | 11.82053 | 4870 ft | 244 kts | 314° |
| 2026-05-01 12:30 | 48.41668 | 11.80165 | 4995 ft | 244 kts | 312° |
| 2026-05-01 12:31 | 48.42563 | 11.78011 | 5007 ft | 244 kts | 287° |
| 2026-05-01 12:31 | 48.42748 | 11.75490 | 5008 ft | 242 kts | 268° |
| 2026-05-01 12:31 | 48.42703 | 11.72973 | 4908 ft | 239 kts | 265° |
| 2026-05-01 12:31 | 48.42620 | 11.70461 | 4579 ft | 241 kts | 265° |
| 2026-05-01 12:32 | 48.42529 | 11.67976 | 4374 ft | 233 kts | 266° |
| 2026-05-01 12:32 | 48.42173 | 11.63151 | 3898 ft | 230 kts | 247° |
| 2026-05-01 12:32 | 48.41253 | 11.61307 | 3632 ft | 221 kts | 211° |
| 2026-05-01 12:33 | 48.39854 | 11.60539 | 3387 ft | 211 kts | 182° |
| 2026-05-01 12:33 | 48.38426 | 11.60703 | 3126 ft | 202 kts | 159° |
| 2026-05-01 12:33 | 48.37369 | 11.61892 | 2886 ft | 186 kts | 122° |
| 2026-05-01 12:33 | 48.36746 | 11.63529 | 2737 ft | 172 kts | 114° |
| 2026-05-01 12:34 | 48.36278 | 11.65009 | 2735 ft | 141 kts | 111° |
| 2026-05-01 12:34 | 48.35886 | 11.66244 | 2591 ft | 126 kts | 112° |
| 2026-05-01 12:34 | 48.35561 | 11.67505 | 2548 ft | 134 kts | 98° |
| 2026-05-01 12:34 | 48.35656 | 11.68903 | 2539 ft | 133 kts | 79° |
| 2026-05-01 12:35 | 48.35777 | 11.70310 | 2376 ft | 137 kts | 84° |
| 2026-05-01 12:35 | 48.35886 | 11.71740 | 2193 ft | 137 kts | 85° |
| 2026-05-01 12:35 | 48.35996 | 11.73178 | 1988 ft | 138 kts | 84° |
| 2026-05-01 12:35 | 48.36111 | 11.74557 | 1788 ft | 131 kts | 84° |
| 2026-05-01 12:36 | 48.36214 | 11.75922 | 1626 ft | 131 kts | 85° |
| 2026-05-01 12:36 | 48.36317 | 11.77256 | 1479 ft | 123 kts | 85° |
| 2026-05-01 12:36 | 48.36401 | 11.78373 | 1463 ft | 87 kts | 83° |
| 2026-05-01 12:36 | 48.36401 | 11.78766 | 1461 ft | 15 kts | 119° |
| 2026-05-01 12:37 | 48.36357 | 11.78908 | 1466 ft | 15 kts | 114° |
| 2026-05-01 12:37 | 48.36316 | 11.79045 | 1468 ft | 13 kts | 114° |
| 2026-05-01 12:37 | 48.36281 | 11.79173 | 1467 ft | 10 kts | 113° |
| 2026-05-01 12:37 | 48.36258 | 11.79244 | 1464 ft | 7 kts | 117° |
| 2026-05-01 12:38 | 48.36233 | 11.79328 | 1460 ft | 10 kts | 111° |
| 2026-05-01 12:38 | 48.36204 | 11.79430 | 1463 ft | 11 kts | 121° |
| 2026-05-01 12:38 | 48.36130 | 11.79475 | 1468 ft | 13 kts | 175° |
| 2026-05-01 12:38 | 48.36053 | 11.79487 | 1463 ft | 12 kts | 173° |
| 2026-05-01 12:39 | 48.35965 | 11.79503 | 1466 ft | 14 kts | 174° |
| 2026-05-01 12:39 | 48.35862 | 11.79520 | 1464 ft | 16 kts | 172° |
| 2026-05-01 12:39 | 48.35770 | 11.79539 | 1464 ft | 11 kts | 173° |
| 2026-05-01 12:39 | 48.35715 | 11.79561 | 1458 ft | 4 kts | 115° |
| 2026-05-01 12:40 | 48.35720 | 11.79617 | 1463 ft | 7 kts | 79° |
| 2026-05-01 12:40 | 48.35726 | 11.79661 | 1467 ft | 3 kts | 78° |
| 2026-05-01 12:40 | 48.35728 | 11.79683 | 1467 ft | 3 kts | 82° |
| 2026-05-01 12:40 | 48.35728 | 11.79689 | 1467 ft | 0 kts | 82° |